Terminal Aerodrome Forecast
Issued by NWS Mt. Holly, NJ

Current Version | Previous Version | Text Only | Print | Product List | Glossary On
Versions: 1 2 3 4 5 6 7 8 9 10 11 12 13 14 15 16 17 18 19 20 21 22 23 24 25 26 27 28 29 30 31 32 33 34 35 36
000
FTUS41 KPHI 290520
TAFPHL
TAF
KPHL 290520Z 2906/3012 05009KT 6SM BR BKN008 OVC012
      TEMPO 2906/2910 4SM -DZ BR SCT008 OVC012
     FM291000 07007KT 6SM BR OVC015
     FM291600 08010KT 6SM BR VCSH BKN025 OVC040
      TEMPO 2916/2920 4SM -SHRA BR OVC015
     FM300100 09005KT 4SM BR OVC008=

USA.gov is the U.S. government's official web portal to all federal, state and local government web resources and services.